^^
Saratoga-Weather Station Historical Data
Daily Summary for March 27, 2021 Units:  English    Metric   Both
Daily Weekly Monthly Yearly Custom
  High: Low: Average:
Temperature: 61 °F 55.2 °F 57.2 °F
Dew Point: 58.1 °F 54.1 °F 55.6 °F
Humidity: 96% 89% 94%
Wind Speed: 0mph 0mph 0mph
Wind Gust: 3mph - -
Wind- -
Pressure: 30 in 30 in -
Precipitation: 0 in    
Historical Graphs
 
 
Tabular Data for March 27, 2021
Time Temperature Dew Point Pressure Wind Wind Speed Wind Gust Humidity Rainfall Rate (Hourly) solar
00:03 61 °F 58.1 °F 30 in Calm   3 mph 90% 0 in 0 W/m2
00:08 61 °F 58.1 °F 30 in Calm   3 mph 90% 0 in 0 W/m2
00:13 61 °F 58.1 °F 30 in Calm   1 mph 90% 0 in 0 W/m2
00:19 61 °F 57.7 °F 30 in Calm   3 mph 89% 0 in 0 W/m2
00:24 60.8 °F 57.6 °F 30 in Calm     89% 0 in 0 W/m2
00:29 60.6 °F 57.7 °F 30 in Calm   2 mph 90% 0 in 0 W/m2
00:34 60.4 °F 57.6 °F 30 in Calm   1 mph 90% 0 in 0 W/m2
00:39 60.1 °F 57.2 °F 30 in Calm     90% 0 in 0 W/m2
00:44 59.7 °F 57 °F 30 in Calm     91% 0 in 0 W/m2
00:49 59.5 °F 56.8 °F 30 in Calm   1 mph 91% 0 in 0 W/m2
00:54 59.2 °F 56.5 °F 30 in Calm     91% 0 in 0 W/m2
00:59 58.8 °F 56.5 °F 30 in Calm   2 mph 92% 0 in 0 W/m2
01:04 58.6 °F 56.3 °F 30 in Calm     92% 0 in 0 W/m2
01:09 58.5 °F 56.1 °F 30 in Calm     92% 0 in 0 W/m2
01:14 58.1 °F 55.8 °F 30 in Calm     92% 0 in 0 W/m2
01:19 57.9 °F 55.9 °F 30 in Calm     93% 0 in 0 W/m2
01:24 57.7 °F 55.8 °F 30 in Calm     93% 0 in 0 W/m2
01:29 57.7 °F 55.8 °F 30 in Calm     93% 0 in 0 W/m2
01:34 57.6 °F 55.8 °F 30 in Calm     94% 0 in 0 W/m2
01:39 57.6 °F 55.8 °F 30 in Calm     94% 0 in 0 W/m2
01:44 57.4 °F 55.6 °F 30 in Calm     94% 0 in 0 W/m2
01:49 57.2 °F 55.4 °F 30 in Calm     94% 0 in 0 W/m2
01:54 57 °F 55.2 °F 30 in Calm     94% 0 in 0 W/m2
01:59 57 °F 55.2 °F 30 in Calm     94% 0 in 0 W/m2
02:04 57 °F 55.6 °F 30 in Calm     95% 0 in 0 W/m2
02:09 57 °F 55.6 °F 30 in Calm     95% 0 in 0 W/m2
02:14 57 °F 55.6 °F 30 in Calm     95% 0 in 0 W/m2
02:19 57 °F 55.6 °F 30 in Calm     95% 0 in 0 W/m2
02:24 57 °F 55.6 °F 30 in Calm     95% 0 in 0 W/m2
02:29 56.8 °F 55.4 °F 30 in Calm     95% 0 in 0 W/m2
02:34 56.8 °F 55.4 °F 30 in Calm     95% 0 in 0 W/m2
02:39 56.7 °F 55.2 °F 30 in Calm     95% 0 in 0 W/m2
02:44 56.7 °F 55.2 °F 30 in Calm     95% 0 in 0 W/m2
02:49 56.7 °F 55.2 °F 30 in Calm     95% 0 in 0 W/m2
02:54 56.7 °F 55.2 °F 30 in Calm     95% 0 in 0 W/m2
02:59 56.7 °F 55.2 °F 30 in Calm     95% 0 in 0 W/m2
03:04 56.5 °F 55 °F 30 in Calm     95% 0 in 0 W/m2
03:09 56.7 °F 55.6 °F 30 in Calm     96% 0 in 0 W/m2
03:14 56.7 °F 55.6 °F 30 in Calm     96% 0 in 0 W/m2
03:19 56.7 °F 55.6 °F 30 in Calm   1 mph 96% 0 in 0 W/m2
03:24 56.7 °F 55.6 °F 30 in Calm     96% 0 in 0 W/m2
03:29 56.7 °F 55.6 °F 30 in Calm     96% 0 in 0 W/m2
03:34 56.7 °F 55.6 °F 30 in Calm     96% 0 in 0 W/m2
03:39 56.7 °F 55.6 °F 30 in Calm   1 mph 96% 0 in 0 W/m2
03:44 56.7 °F 55.6 °F 30 in Calm   1 mph 96% 0 in 0 W/m2
03:49 56.7 °F 55.6 °F 30 in Calm     96% 0 in 0 W/m2
03:54 56.5 °F 55.4 °F 30 in Calm     96% 0 in 0 W/m2
03:59 56.5 °F 55.4 °F 30 in Calm     96% 0 in 0 W/m2
04:04 56.3 °F 55.2 °F 30 in Calm     96% 0 in 0 W/m2
04:09 56.1 °F 55 °F 30 in Calm     96% 0 in 0 W/m2
04:14 55.9 °F 54.9 °F 30 in Calm     96% 0 in 0 W/m2
04:19 55.9 °F 54.9 °F 30 in Calm     96% 0 in 0 W/m2
04:24 55.8 °F 54.7 °F 30 in Calm     96% 0 in 0 W/m2
04:29 55.8 °F 54.7 °F 30 in Calm     96% 0 in 0 W/m2
04:34 55.8 °F 54.7 °F 30 in Calm     96% 0 in 0 W/m2
04:39 55.8 °F 54.7 °F 30 in Calm     96% 0 in 0 W/m2
04:44 55.8 °F 54.7 °F 30 in Calm     96% 0 in 0 W/m2
04:49 55.6 °F 54.5 °F 30 in Calm     96% 0 in 0 W/m2
04:54 55.6 °F 54.5 °F 30 in Calm     96% 0 in 0 W/m2
04:59 55.6 °F 54.5 °F 30 in Calm     96% 0 in 0 W/m2
05:05 55.6 °F 54.5 °F 30 in Calm     96% 0 in 0 W/m2
05:10 55.6 °F 54.5 °F 30 in Calm     96% 0 in 0 W/m2
05:15 55.6 °F 54.5 °F 30 in Calm     96% 0 in 0 W/m2
05:20 55.6 °F 54.5 °F 30 in Calm     96% 0 in 0 W/m2
05:25 55.6 °F 54.5 °F 30 in Calm     96% 0 in 0 W/m2
05:30 55.6 °F 54.5 °F 30 in Calm     96% 0 in 0 W/m2
05:35 55.4 °F 54.3 °F 30 in Calm     96% 0 in 0 W/m2
05:40 55.4 °F 54.3 °F 30 in Calm     96% 0 in 0 W/m2
05:45 55.2 °F 54.1 °F 30 in Calm     96% 0 in 0 W/m2
05:50 55.2 °F 54.1 °F 30 in Calm     96% 0 in 0 W/m2
05:55 55.2 °F 54.1 °F 30 in Calm     96% 0 in 0 W/m2
Juneau County Weather
Compliments of Weather Underground - 2 mb